West Olive, Michigan
Current Conditions -  °F | °C
As of 7:53 PM on Monday 26 Jan 2015 (Local Time) from KBIV Reporting Station
Scattered Clouds Scattered Clouds  
Wind Chill: -8°   Ceiling: Unl
Heat Index: -4°   Visibility: 10mi
Dew Point: -13°   Wind: 6mph
Humidity: 53%   Direction: 80°E
Pressure: 29.95"   Gusts: NA
Location:  42.92°N, 86.15°W
Report Text: KBIV 270053Z AUTO 08005KT 10SM SCT080 M04/M13 A2995 RMK AO2 SLP155 T10441128
Loading
Personal Weather Stations






























Interactive Weather Map New forecast layout! Learn more

10-Day Weather Forecast

Advertisements
Track Severe Weather on mobile